createdAt,value
2019-03-21T00:01:32.456Z,1.48
2019-03-21T00:04:15.071Z,1.52
2019-03-21T00:06:46.347Z,1.49
2019-03-21T00:09:19.275Z,1.46
2019-03-21T00:12:02.909Z,1.42
2019-03-21T00:15:20.244Z,1.35
2019-03-21T00:18:13.519Z,1.31
2019-03-21T00:20:44.744Z,1.29
2019-03-21T00:23:15.889Z,1.19
2019-03-21T00:25:48.213Z,1.19
2019-03-21T00:28:19.519Z,1.13
2019-03-21T00:30:50.936Z,1.14
2019-03-21T00:33:22.181Z,1.07
2019-03-21T00:35:53.368Z,1.11
2019-03-21T00:38:24.560Z,1.15
2019-03-21T00:40:55.933Z,1.06
2019-03-21T00:43:27.152Z,1.00
2019-03-21T00:45:58.431Z,0.98
2019-03-21T00:48:29.688Z,0.97
2019-03-21T00:51:00.965Z,0.99
2019-03-21T00:53:32.181Z,1.03
2019-03-21T00:56:03.418Z,1.03
2019-03-21T00:58:34.772Z,1.05
2019-03-21T01:01:06.204Z,1.08
2019-03-21T01:03:37.416Z,0.96
2019-03-21T01:06:08.733Z,0.89
2019-03-21T01:08:39.980Z,0.87
2019-03-21T01:11:11.180Z,0.85
2019-03-21T01:13:42.432Z,0.79
2019-03-21T01:16:13.642Z,0.75
2019-03-21T01:18:44.964Z,0.67
2019-03-21T01:21:16.196Z,0.64
2019-03-21T01:23:47.421Z,0.64
2019-03-21T01:26:18.638Z,0.59
2019-03-21T01:28:49.872Z,0.64
2019-03-21T01:31:21.085Z,0.65
2019-03-21T01:33:52.371Z,0.60
2019-03-21T01:36:25.149Z,0.61
2019-03-21T01:38:56.455Z,0.62
2019-03-21T01:41:27.784Z,0.64
2019-03-21T01:43:59.043Z,0.68
2019-03-21T01:46:30.389Z,0.65
2019-03-21T01:49:01.625Z,0.65
2019-03-21T01:51:32.796Z,0.65
2019-03-21T01:54:04.151Z,0.67
2019-03-21T01:56:35.583Z,0.63
2019-03-21T01:59:06.805Z,0.61
2019-03-21T02:01:38.090Z,0.48
2019-03-21T02:04:09.557Z,0.43
2019-03-21T02:06:40.835Z,0.44
2019-03-21T02:09:12.258Z,0.27
2019-03-21T02:11:44.165Z,0.08
2019-03-21T02:14:15.393Z,-0.19
2019-03-21T02:16:46.739Z,-0.36
2019-03-21T02:19:18.067Z,-0.43
2019-03-21T02:21:49.295Z,-0.49
2019-03-21T02:24:20.613Z,-0.48
2019-03-21T02:26:51.924Z,-0.43
2019-03-21T02:29:23.216Z,-0.54
2019-03-21T02:31:54.486Z,-0.56
2019-03-21T02:34:25.670Z,-0.62
2019-03-21T02:36:56.900Z,-0.59
2019-03-21T02:39:28.094Z,-0.52
2019-03-21T02:41:59.399Z,-0.38
2019-03-21T02:44:30.650Z,-0.25
2019-03-21T02:47:01.870Z,-0.22
2019-03-21T02:49:33.119Z,-0.23
2019-03-21T02:52:04.439Z,-0.39
2019-03-21T02:54:35.551Z,-0.42
2019-03-21T02:57:06.767Z,-0.48
2019-03-21T02:59:38.072Z,-0.57
2019-03-21T03:02:09.270Z,-0.52
2019-03-21T03:04:40.386Z,-0.64
2019-03-21T03:07:11.624Z,-0.71
2019-03-21T03:09:42.888Z,-0.68
2019-03-21T03:12:14.193Z,-0.76
2019-03-21T03:14:45.530Z,-0.84
2019-03-21T03:17:16.670Z,-0.84
2019-03-21T03:19:47.872Z,-0.81
2019-03-21T03:22:19.095Z,-0.78
2019-03-21T03:24:50.294Z,-0.74
2019-03-21T03:27:21.417Z,-0.82
2019-03-21T03:29:52.730Z,-0.74
2019-03-21T03:32:24.004Z,-0.78
2019-03-21T03:34:55.382Z,-0.71
2019-03-21T03:37:26.705Z,-0.63
2019-03-21T03:39:57.999Z,-0.54
2019-03-21T03:42:29.178Z,-0.48
2019-03-21T03:45:00.585Z,-0.40
2019-03-21T03:47:32.032Z,-0.33
2019-03-21T03:50:03.304Z,-0.29
2019-03-21T03:52:34.521Z,-0.17
2019-03-21T03:55:06.276Z,-0.10
2019-03-21T03:57:37.576Z,-0.08
2019-03-21T04:00:11.667Z,-0.05
2019-03-21T04:02:43.025Z,-0.04
2019-03-21T04:05:14.345Z,-0.07
2019-03-21T04:07:45.833Z,-0.09
2019-03-21T04:10:25.290Z,-0.08
2019-03-21T04:12:56.517Z,-0.07
2019-03-21T04:15:27.754Z,-0.03
2019-03-21T04:17:59.117Z,0.00
2019-03-21T04:20:32.676Z,0.03
2019-03-21T04:23:04.664Z,0.09
2019-03-21T04:25:50.144Z,0.12
2019-03-21T04:28:21.592Z,0.15
2019-03-21T04:30:52.842Z,0.27
2019-03-21T04:33:23.999Z,0.36
2019-03-21T04:35:55.355Z,0.42
2019-03-21T04:38:26.929Z,0.38
2019-03-21T04:40:58.230Z,0.39
2019-03-21T04:43:29.578Z,0.46
2019-03-21T04:46:03.664Z,0.42
2019-03-21T04:48:33.705Z,0.38
2019-03-21T04:51:05.001Z,0.38
2019-03-21T04:53:36.229Z,0.35
2019-03-21T04:56:07.515Z,0.35
2019-03-21T04:58:38.757Z,0.33
2019-03-21T05:01:10.007Z,0.29
2019-03-21T05:03:41.235Z,0.27
2019-03-21T05:06:12.456Z,0.17
2019-03-21T05:08:43.652Z,0.11
2019-03-21T05:11:15.023Z,0.09
2019-03-21T05:13:46.213Z,0.09
2019-03-21T05:16:17.443Z,0.07
2019-03-21T05:18:49.684Z,0.05
2019-03-21T05:21:21.168Z,0.01
2019-03-21T05:23:52.445Z,0.02
2019-03-21T05:26:23.672Z,-0.01
2019-03-21T05:28:54.920Z,0.02
2019-03-21T05:31:30.890Z,0.11
2019-03-21T05:34:02.120Z,0.14
2019-03-21T05:36:33.225Z,0.23
2019-03-21T05:39:06.263Z,0.27
2019-03-21T05:41:37.550Z,0.40
2019-03-21T05:44:18.058Z,0.43
2019-03-21T05:46:49.333Z,0.48
2019-03-21T05:49:20.504Z,0.49
2019-03-21T05:51:51.521Z,0.53
2019-03-21T05:54:22.750Z,0.55
2019-03-21T05:56:53.931Z,0.70
2019-03-21T05:59:25.018Z,0.83
2019-03-21T06:01:56.296Z,0.91
2019-03-21T06:04:27.504Z,1.04
2019-03-21T06:07:29.648Z,1.08
2019-03-21T06:10:00.862Z,1.14
2019-03-21T06:12:31.410Z,1.20
2019-03-21T06:15:03.728Z,1.35
2019-03-21T06:17:35.719Z,1.37
2019-03-21T06:21:04.839Z,1.42
2019-03-21T06:23:56.318Z,1.54
2019-03-21T06:26:55.347Z,1.53
2019-03-21T06:29:26.696Z,1.61
2019-03-21T06:31:58.005Z,1.75
2019-03-21T06:34:29.125Z,1.71
2019-03-21T06:37:00.238Z,1.82
2019-03-21T06:39:31.585Z,1.92
2019-03-21T06:42:02.932Z,2.20
2019-03-21T06:44:34.072Z,2.21
2019-03-21T06:47:05.332Z,2.35
2019-03-21T06:49:36.526Z,2.40
2019-03-21T06:52:07.834Z,2.63
2019-03-21T06:54:39.077Z,2.85
2019-03-21T06:57:10.242Z,3.00
2019-03-21T06:59:41.506Z,3.29
2019-03-21T07:02:12.753Z,3.44
2019-03-21T07:04:43.865Z,3.64
2019-03-21T07:07:15.152Z,3.98
2019-03-21T07:09:46.369Z,4.22
2019-03-21T07:12:17.691Z,4.61
2019-03-21T07:14:48.952Z,4.91
2019-03-21T07:17:20.157Z,5.29
2019-03-21T07:19:51.421Z,5.72
2019-03-21T07:22:22.658Z,6.07
2019-03-21T07:24:53.895Z,6.66
2019-03-21T07:27:25.057Z,7.34
2019-03-21T07:29:56.214Z,7.16
2019-03-21T07:32:33.259Z,7.64
2019-03-21T07:35:00.419Z,7.72
2019-03-21T07:37:31.685Z,7.98
2019-03-21T07:40:02.919Z,8.12
2019-03-21T07:42:34.154Z,8.71
2019-03-21T07:45:06.247Z,8.65
2019-03-21T07:47:37.492Z,8.71
2019-03-21T07:50:09.962Z,8.89
2019-03-21T07:52:41.120Z,9.00
2019-03-21T07:55:12.674Z,9.44
2019-03-21T07:57:43.908Z,9.94
2019-03-21T08:00:15.757Z,9.88
2019-03-21T08:02:46.979Z,9.77
2019-03-21T08:05:19.100Z,10.14
2019-03-21T08:07:50.366Z,10.56
2019-03-21T08:10:21.559Z,10.95
2019-03-21T08:12:52.818Z,11.28
2019-03-21T08:15:23.981Z,11.43
2019-03-21T08:17:55.211Z,11.28
2019-03-21T08:20:26.454Z,11.40
2019-03-21T08:22:57.630Z,11.87
2019-03-21T08:25:28.738Z,12.25
2019-03-21T08:28:00.026Z,12.46
2019-03-21T08:30:40.493Z,13.04
2019-03-21T08:33:11.691Z,13.13
2019-03-21T08:35:42.905Z,13.11
2019-03-21T08:38:14.166Z,13.18
2019-03-21T08:40:45.409Z,12.71
2019-03-21T08:43:16.596Z,12.68
2019-03-21T08:45:47.680Z,11.70
2019-03-21T08:48:18.928Z,11.86
2019-03-21T08:50:50.130Z,12.02
2019-03-21T08:53:21.367Z,12.31
2019-03-21T08:55:52.602Z,12.96
2019-03-21T08:58:23.717Z,13.47
2019-03-21T09:00:54.950Z,13.48
2019-03-21T09:03:27.498Z,13.16
2019-03-21T09:05:58.733Z,13.01
2019-03-21T09:08:29.911Z,13.51
2019-03-21T09:11:01.136Z,13.39
2019-03-21T09:13:32.461Z,13.04
2019-03-21T09:16:03.645Z,13.11
2019-03-21T09:18:34.854Z,12.77
2019-03-21T09:21:06.122Z,13.27
2019-03-21T09:23:37.391Z,13.84
2019-03-21T09:26:08.683Z,14.08
2019-03-21T09:28:39.958Z,14.84
2019-03-21T09:31:11.169Z,15.03
2019-03-21T09:33:42.566Z,15.36
2019-03-21T09:36:13.819Z,14.99
2019-03-21T09:38:45.116Z,15.44
2019-03-21T09:41:16.436Z,15.67
2019-03-21T09:43:47.618Z,15.40
2019-03-21T09:46:18.889Z,15.60
2019-03-21T09:48:50.209Z,15.88
2019-03-21T09:51:30.545Z,15.12
2019-03-21T09:53:54.267Z,15.22
2019-03-21T09:56:25.484Z,15.47
2019-03-21T09:58:56.822Z,15.84
2019-03-21T10:01:28.047Z,16.19
2019-03-21T10:03:59.288Z,15.69
2019-03-21T10:06:30.528Z,16.45
2019-03-21T10:09:01.698Z,16.82
2019-03-21T10:11:32.975Z,17.49
2019-03-21T10:14:04.202Z,18.07
2019-03-21T10:16:38.423Z,17.25
2019-03-21T10:19:09.682Z,16.62
2019-03-21T10:21:43.612Z,17.14
2019-03-21T10:24:13.939Z,16.78
2019-03-21T10:26:45.123Z,16.91
2019-03-21T10:29:16.456Z,16.17
2019-03-21T10:31:47.800Z,16.41
2019-03-21T10:34:19.096Z,16.92
2019-03-21T10:36:50.279Z,17.60
2019-03-21T10:39:21.520Z,17.12
2019-03-21T10:41:52.763Z,17.86
2019-03-21T10:44:23.878Z,18.75
2019-03-21T10:46:55.149Z,18.41
2019-03-21T10:49:26.515Z,18.06
2019-03-21T10:51:57.703Z,17.84
2019-03-21T10:54:28.855Z,18.17
2019-03-21T10:57:03.111Z,17.82
2019-03-21T10:59:34.317Z,17.28
2019-03-21T11:02:07.499Z,16.98
2019-03-21T11:04:38.844Z,17.14
2019-03-21T11:07:06.910Z,17.02
2019-03-21T11:09:38.124Z,17.57
2019-03-21T11:12:09.430Z,17.08
2019-03-21T11:14:40.781Z,17.19
2019-03-21T11:17:11.959Z,16.77
2019-03-21T11:19:43.208Z,16.92
2019-03-21T11:22:14.482Z,17.05
2019-03-21T11:24:45.795Z,17.53
2019-03-21T11:27:16.922Z,17.92
2019-03-21T11:29:48.174Z,18.40
2019-03-21T11:32:19.444Z,17.70
2019-03-21T11:34:50.795Z,17.76
2019-03-21T11:37:22.011Z,18.76
2019-03-21T11:39:53.177Z,18.29
2019-03-21T11:42:26.574Z,18.22
2019-03-21T11:44:57.376Z,17.15
2019-03-21T11:47:28.566Z,17.18
2019-03-21T11:49:59.808Z,18.58
2019-03-21T11:52:31.027Z,19.52
2019-03-21T11:55:02.259Z,18.98
2019-03-21T11:57:33.566Z,19.36
2019-03-21T12:00:05.163Z,19.89
2019-03-21T12:02:36.391Z,20.63
2019-03-21T12:05:07.789Z,20.09
2019-03-21T12:07:39.107Z,21.06
2019-03-21T12:10:10.588Z,21.42
2019-03-21T12:12:41.861Z,22.25
2019-03-21T12:15:13.222Z,20.66
2019-03-21T12:17:44.471Z,20.40
2019-03-21T12:20:27.596Z,20.53
2019-03-21T12:22:58.834Z,20.89
2019-03-21T12:25:30.161Z,21.17
2019-03-21T12:28:01.798Z,21.14
2019-03-21T12:30:41.181Z,21.58
2019-03-21T12:33:12.427Z,21.97
2019-03-21T12:35:43.703Z,22.16
2019-03-21T12:38:14.936Z,20.60
2019-03-21T12:40:46.178Z,21.34
2019-03-21T12:43:17.526Z,20.77
2019-03-21T12:45:48.751Z,20.18
2019-03-21T12:48:20.039Z,21.09
2019-03-21T12:50:51.320Z,21.36
2019-03-21T12:53:22.629Z,20.60
2019-03-21T12:55:53.840Z,21.72
2019-03-21T12:58:25.114Z,23.36
2019-03-21T13:00:56.350Z,23.66
2019-03-21T13:03:27.721Z,23.25
2019-03-21T13:05:59.023Z,23.87
2019-03-21T13:08:34.085Z,22.50
2019-03-21T13:11:03.222Z,23.59
2019-03-21T13:13:34.528Z,24.21
2019-03-21T13:16:05.746Z,24.33
2019-03-21T13:18:37.018Z,22.53
2019-03-21T13:21:08.265Z,22.03
2019-03-21T13:23:39.556Z,21.93
2019-03-21T13:26:10.825Z,21.99
2019-03-21T13:28:42.081Z,20.45
2019-03-21T13:31:13.363Z,20.78
2019-03-21T13:33:44.624Z,19.55
2019-03-21T13:36:15.891Z,18.31
2019-03-21T13:38:47.195Z,18.35
2019-03-21T13:41:18.562Z,16.36
2019-03-21T13:43:49.607Z,16.30
2019-03-21T13:46:20.828Z,15.92
2019-03-21T13:48:52.066Z,15.99
2019-03-21T13:51:23.341Z,15.61
2019-03-21T13:53:54.473Z,15.08
2019-03-21T13:56:25.776Z,15.37
2019-03-21T13:58:57.013Z,15.30
2019-03-21T14:01:28.291Z,15.41
2019-03-21T14:04:01.801Z,15.32
2019-03-21T14:06:32.597Z,15.19
2019-03-21T14:09:04.602Z,15.07
2019-03-21T14:11:35.800Z,14.89
2019-03-21T14:14:07.049Z,14.85
2019-03-21T14:16:38.577Z,14.78
2019-03-21T14:19:09.746Z,14.44
2019-03-21T14:21:41.242Z,14.74
2019-03-21T14:24:12.543Z,14.92
2019-03-21T14:26:43.687Z,15.33
2019-03-21T14:29:14.884Z,15.38
2019-03-21T14:31:46.168Z,15.46
2019-03-21T14:34:17.344Z,15.92
2019-03-21T14:36:48.585Z,16.38
2019-03-21T14:39:19.868Z,16.13
2019-03-21T14:41:51.242Z,16.87
2019-03-21T14:44:22.516Z,17.19
2019-03-21T14:46:53.845Z,18.20
2019-03-21T14:49:25.534Z,19.54
2019-03-21T14:51:59.550Z,19.84
2019-03-21T14:54:30.062Z,20.58
2019-03-21T14:57:02.114Z,20.39
2019-03-21T14:59:36.875Z,18.55
2019-03-21T15:02:08.032Z,18.14
2019-03-21T15:04:39.171Z,18.29
2019-03-21T15:07:10.542Z,17.86
2019-03-21T15:09:41.945Z,17.34
2019-03-21T15:12:13.289Z,16.40
2019-03-21T15:14:44.583Z,15.92
2019-03-21T15:17:18.703Z,15.04
2019-03-21T15:19:50.062Z,14.55
2019-03-21T15:22:21.384Z,14.27
2019-03-21T15:24:52.582Z,14.03
2019-03-21T15:27:24.012Z,13.83
2019-03-21T15:29:55.654Z,13.67
2019-03-21T15:32:27.027Z,13.66
2019-03-21T15:34:58.258Z,13.62
2019-03-21T15:37:29.544Z,13.59
2019-03-21T15:40:03.061Z,13.56
2019-03-21T15:42:34.351Z,13.43
2019-03-21T15:45:21.086Z,13.39
2019-03-21T15:47:39.989Z,13.31
2019-03-21T15:50:16.799Z,13.16
2019-03-21T15:52:47.981Z,13.17
2019-03-21T15:55:19.210Z,13.17
2019-03-21T15:58:09.230Z,13.04
2019-03-21T16:00:42.114Z,13.07
2019-03-21T16:03:13.930Z,13.08
2019-03-21T16:05:45.262Z,13.02
2019-03-21T16:08:16.374Z,12.95
2019-03-21T16:10:47.601Z,12.97
2019-03-21T16:13:18.807Z,12.95
2019-03-21T16:15:50.023Z,12.91
2019-03-21T16:18:21.298Z,12.85
2019-03-21T16:20:52.437Z,12.78
2019-03-21T16:23:23.705Z,12.72
2019-03-21T16:25:54.930Z,12.63
2019-03-21T16:28:26.101Z,12.62
2019-03-21T16:30:57.365Z,12.56
2019-03-21T16:33:28.622Z,12.49
2019-03-21T16:35:59.868Z,12.43
2019-03-21T16:38:31.095Z,12.46
2019-03-21T16:41:02.180Z,12.41
2019-03-21T16:43:33.484Z,12.27
2019-03-21T16:46:04.694Z,12.27
2019-03-21T16:48:36.183Z,12.16
2019-03-21T16:51:07.474Z,12.14
2019-03-21T16:53:38.685Z,12.08
2019-03-21T16:56:09.816Z,12.10
2019-03-21T16:58:40.934Z,11.97
2019-03-21T17:01:12.375Z,11.88
2019-03-21T17:03:43.754Z,11.89
2019-03-21T17:06:14.965Z,11.82
2019-03-21T17:08:46.378Z,11.78
2019-03-21T17:11:17.612Z,11.69
2019-03-21T17:13:48.903Z,11.64
2019-03-21T17:16:20.127Z,11.57
2019-03-21T17:18:51.277Z,11.46
2019-03-21T17:21:22.568Z,11.38
2019-03-21T17:23:53.796Z,11.30
2019-03-21T17:26:25.012Z,11.18
2019-03-21T17:28:56.166Z,11.08
2019-03-21T17:31:27.561Z,10.98
2019-03-21T17:33:58.788Z,10.81
2019-03-21T17:36:29.999Z,10.64
2019-03-21T17:39:01.274Z,10.49
2019-03-21T17:41:32.483Z,10.38
2019-03-21T17:44:03.631Z,10.27
2019-03-21T17:46:34.747Z,9.97
2019-03-21T17:49:06.314Z,9.82
2019-03-21T17:51:37.595Z,9.62
2019-03-21T17:54:08.898Z,9.40
2019-03-21T17:56:40.093Z,9.12
2019-03-21T17:59:11.253Z,8.91
2019-03-21T18:01:42.517Z,8.76
2019-03-21T18:04:13.912Z,8.62
2019-03-21T18:06:45.167Z,8.54
2019-03-21T18:09:16.459Z,8.50
2019-03-21T18:11:48.544Z,8.38
2019-03-21T18:14:19.821Z,8.33
2019-03-21T18:16:51.157Z,8.14
2019-03-21T18:19:22.435Z,7.99
2019-03-21T18:21:53.614Z,7.76
2019-03-21T18:24:24.895Z,7.61
2019-03-21T18:26:56.030Z,7.46
2019-03-21T18:29:27.223Z,7.35
2019-03-21T18:31:58.474Z,7.28
2019-03-21T18:34:29.673Z,7.32
2019-03-21T18:37:00.949Z,7.37
2019-03-21T18:39:32.268Z,7.31
2019-03-21T18:42:03.490Z,7.18
2019-03-21T18:44:34.681Z,7.14
2019-03-21T18:47:05.910Z,7.09
2019-03-21T18:49:37.061Z,6.99
2019-03-21T18:52:08.324Z,6.96
2019-03-21T18:54:39.470Z,6.89
2019-03-21T18:57:10.789Z,6.85
2019-03-21T18:59:42.062Z,6.79
2019-03-21T19:02:13.351Z,6.72
2019-03-21T19:04:44.631Z,6.66
2019-03-21T19:07:15.951Z,6.78
2019-03-21T19:09:47.194Z,6.84
2019-03-21T19:12:18.535Z,6.82
2019-03-21T19:14:49.851Z,6.82
2019-03-21T19:17:21.087Z,6.69
2019-03-21T19:19:52.341Z,6.63
2019-03-21T19:22:23.638Z,6.56
2019-03-21T19:24:54.935Z,6.28
2019-03-21T19:27:26.042Z,6.13
2019-03-21T19:29:57.340Z,6.11
2019-03-21T19:32:29.012Z,6.11
2019-03-21T19:35:00.212Z,6.26
2019-03-21T19:37:31.738Z,6.38
2019-03-21T19:40:03.015Z,6.44
2019-03-21T19:42:34.243Z,6.54
2019-03-21T19:45:07.073Z,6.60
2019-03-21T19:47:38.365Z,6.58
2019-03-21T19:50:11.071Z,6.36
2019-03-21T19:52:42.364Z,6.34
2019-03-21T19:55:13.899Z,6.36
2019-03-21T19:57:45.108Z,6.37
2019-03-21T20:00:19.219Z,6.36
2019-03-21T20:02:50.412Z,6.34
2019-03-21T20:05:21.731Z,6.31
2019-03-21T20:07:53.191Z,6.26
2019-03-21T20:10:24.652Z,6.23
2019-03-21T20:12:55.941Z,6.22
2019-03-21T20:15:27.263Z,6.13
2019-03-21T20:17:58.432Z,6.02
2019-03-21T20:20:31.084Z,5.92
2019-03-21T20:23:02.536Z,5.82
2019-03-21T20:25:42.851Z,5.62
2019-03-21T20:28:07.889Z,5.47
2019-03-21T20:30:39.161Z,5.39
2019-03-21T20:33:10.981Z,5.42
2019-03-21T20:35:42.190Z,5.30
2019-03-21T20:38:13.580Z,5.31
2019-03-21T20:40:44.814Z,5.30
2019-03-21T20:43:16.011Z,5.26
2019-03-21T20:45:47.425Z,5.31
2019-03-21T20:48:27.730Z,5.30
2019-03-21T20:50:59.456Z,5.05
2019-03-21T20:53:30.741Z,4.80
2019-03-21T20:56:01.881Z,4.60
2019-03-21T20:58:33.162Z,4.41
2019-03-21T21:01:04.790Z,4.51
2019-03-21T21:03:36.096Z,4.51
2019-03-21T21:06:07.380Z,4.55
2019-03-21T21:08:38.612Z,4.58
2019-03-21T21:11:09.765Z,4.64
2019-03-21T21:13:40.974Z,4.52
2019-03-21T21:16:12.277Z,4.37
2019-03-21T21:18:43.547Z,4.40
2019-03-21T21:21:14.844Z,4.42
2019-03-21T21:23:46.146Z,4.40
2019-03-21T21:26:17.377Z,4.32
2019-03-21T21:28:48.596Z,4.27
2019-03-21T21:31:19.813Z,4.26
2019-03-21T21:33:51.139Z,4.19
2019-03-21T21:36:22.462Z,4.14
2019-03-21T21:38:53.644Z,4.02
2019-03-21T21:41:24.939Z,3.94
2019-03-21T21:43:56.640Z,3.93
2019-03-21T21:46:28.029Z,3.92
2019-03-21T21:48:59.335Z,3.98
2019-03-21T21:51:30.534Z,3.99
2019-03-21T21:54:01.829Z,4.08
2019-03-21T21:56:32.974Z,4.08
2019-03-21T21:59:04.237Z,3.84
2019-03-21T22:01:35.487Z,3.79
2019-03-21T22:04:06.818Z,3.61
2019-03-21T22:06:37.995Z,3.57
2019-03-21T22:09:10.749Z,3.60
2019-03-21T22:11:42.000Z,3.76
2019-03-21T22:14:13.228Z,3.79
2019-03-21T22:16:44.446Z,3.79
2019-03-21T22:19:17.091Z,3.93
2019-03-21T22:21:48.225Z,4.01
2019-03-21T22:24:19.456Z,4.21
2019-03-21T22:26:50.563Z,4.37
2019-03-21T22:29:21.851Z,4.59
2019-03-21T22:31:53.012Z,4.76
2019-03-21T22:34:24.205Z,4.93
2019-03-21T22:36:55.417Z,5.13
2019-03-21T22:39:26.689Z,5.38
2019-03-21T22:41:58.085Z,5.51
2019-03-21T22:44:29.321Z,5.59
2019-03-21T22:47:00.580Z,5.69
2019-03-21T22:49:31.914Z,5.77
2019-03-21T22:52:03.193Z,5.75
2019-03-21T22:54:34.895Z,5.76
2019-03-21T22:57:06.146Z,5.81
2019-03-21T22:59:37.404Z,5.83
2019-03-21T23:02:08.644Z,5.83
2019-03-21T23:04:39.900Z,5.81
2019-03-21T23:07:11.129Z,5.84
2019-03-21T23:09:42.402Z,5.84
2019-03-21T23:12:13.578Z,5.79
2019-03-21T23:14:44.842Z,5.76
2019-03-21T23:17:16.058Z,5.72
2019-03-21T23:19:47.305Z,5.70
2019-03-21T23:22:18.572Z,5.67
2019-03-21T23:24:49.851Z,5.69
2019-03-21T23:27:21.059Z,5.70
2019-03-21T23:29:52.366Z,5.69
2019-03-21T23:32:23.578Z,5.73
2019-03-21T23:34:54.870Z,5.75
2019-03-21T23:37:26.178Z,5.79
2019-03-21T23:39:57.402Z,5.89
2019-03-21T23:42:28.530Z,5.98
2019-03-21T23:44:59.787Z,5.94
2019-03-21T23:47:31.044Z,5.85
2019-03-21T23:50:02.322Z,5.76
2019-03-21T23:52:33.511Z,5.73
2019-03-21T23:55:05.114Z,5.71
2019-03-21T23:57:36.391Z,5.88
